Time;durP1;ratioP1;P1;durP2;ratioP2;P2;SDS_P1;SDS_P2;PMS_P1;PMS_P2;Temp;Humidity;BMP_temperature;BMP_pressure;BME280_temperature;BME280_humidity;BME280_pressure;Samples;Min_cycle;Max_cycle;Signal;HPM_P1;HPM_P2
2022/03/02 00:00:10;;;;;;;14.47;3.03;;;20.40;99.90;;;;;;5073221;28;20195;-69
2022/03/02 00:02:37;;;;;;;12.10;3.03;;;20.40;99.90;;;;;;5071586;28;20181;-69
2022/03/02 00:05:07;;;;;;;12.80;3.27;;;20.40;99.90;;;;;;5072753;28;20188;-69
2022/03/02 00:07:34;;;;;;;13.60;2.50;;;20.40;99.90;;;;;;5073096;28;20199;-69
2022/03/02 00:10:03;;;;;;;19.30;3.17;;;20.30;99.90;;;;;;5072356;28;20186;-68
2022/03/02 00:12:30;;;;;;;11.87;2.80;;;20.20;99.90;;;;;;5072149;28;20263;-68
2022/03/02 00:14:59;;;;;;;11.97;4.60;;;20.30;99.90;;;;;;5072012;28;20215;-69
2022/03/02 00:17:26;;;;;;;10.13;1.83;;;20.30;99.90;;;;;;5072678;28;20176;-68
2022/03/02 00:19:54;;;;;;;14.07;1.90;;;20.20;99.90;;;;;;5071236;28;20191;-68
2022/03/02 00:22:21;;;;;;;20.13;4.20;;;20.30;99.90;;;;;;5070967;28;20215;-68
2022/03/02 00:24:51;;;;;;;6.77;1.93;;;20.30;99.90;;;;;;5071162;28;20247;-68
2022/03/02 00:27:25;;;;;;;13.43;3.37;;;20.20;99.90;;;;;;5071357;28;20642;-67
2022/03/02 00:29:53;;;;;;;10.97;1.70;;;20.20;99.90;;;;;;5070550;28;20319;-68
2022/03/02 00:32:21;;;;;;;6.57;1.93;;;20.10;99.90;;;;;;5072004;28;20184;-68
2022/03/02 00:34:48;;;;;;;7.13;1.37;;;20.00;99.90;;;;;;5071820;28;20215;-68
2022/03/02 00:37:16;;;;;;;7.07;1.73;;;20.00;99.90;;;;;;5072128;28;20180;-70
2022/03/02 00:39:44;;;;;;;5.07;1.53;;;20.00;99.90;;;;;;5070125;28;20168;-68
2022/03/02 00:42:12;;;;;;;11.20;2.10;;;20.00;99.90;;;;;;5072029;28;20657;-69
2022/03/02 00:44:39;;;;;;;10.03;2.00;;;20.00;99.90;;;;;;5054511;28;20225;-68
2022/03/02 00:47:07;;;;;;;9.83;1.47;;;20.10;99.90;;;;;;5070717;28;20175;-68
2022/03/02 00:49:36;;;;;;;12.27;1.87;;;20.10;99.90;;;;;;5072014;28;20185;-67
2022/03/02 00:52:06;;;;;;;8.03;2.53;;;20.10;99.90;;;;;;5071987;28;20193;-68
2022/03/02 00:54:33;;;;;;;9.20;1.90;;;20.10;99.90;;;;;;5071963;28;20726;-67
2022/03/02 00:57:01;;;;;;;8.33;2.07;;;20.10;99.90;;;;;;5071499;28;20184;-68
2022/03/02 00:59:28;;;;;;;12.30;1.97;;;20.00;99.90;;;;;;5071941;28;20180;-68
2022/03/02 01:01:55;;;;;;;8.50;1.70;;;20.10;99.90;;;;;;5072176;28;20606;-68
2022/03/02 01:04:23;;;;;;;17.67;2.50;;;20.10;99.90;;;;;;5072046;28;20207;-68
2022/03/02 01:06:50;;;;;;;10.73;2.43;;;20.10;99.90;;;;;;5071525;28;20538;-68
2022/03/02 01:09:18;;;;;;;10.00;1.90;;;20.20;99.90;;;;;;5071852;28;20187;-68
2022/03/02 01:11:45;;;;;;;11.97;2.70;;;20.20;99.90;;;;;;5071505;28;20228;-68
2022/03/02 01:14:12;;;;;;;17.77;2.33;;;20.20;99.90;;;;;;5071790;28;20180;-68
2022/03/02 01:16:40;;;;;;;18.60;2.93;;;20.30;99.90;;;;;;5071152;28;20195;-68
2022/03/02 01:19:07;;;;;;;12.80;2.00;;;20.20;99.90;;;;;;5071541;28;20868;-68
2022/03/02 01:21:35;;;;;;;12.27;2.20;;;20.10;99.90;;;;;;5071810;28;20213;-68
2022/03/02 01:24:02;;;;;;;5.23;1.63;;;19.90;99.90;;;;;;5071630;28;20172;-69
2022/03/02 01:26:30;;;;;;;5.20;1.63;;;19.80;99.90;;;;;;5071315;28;20193;-68
2022/03/02 01:28:57;;;;;;;7.10;1.77;;;19.70;99.90;;;;;;5071357;28;20199;-69
2022/03/02 01:31:26;;;;;;;16.03;1.77;;;19.70;99.90;;;;;;5071521;28;20203;-68
2022/03/02 01:33:54;;;;;;;8.27;1.70;;;19.70;99.90;;;;;;5071495;28;20649;-68
2022/03/02 01:36:22;;;;;;;12.17;1.77;;;19.70;99.90;;;;;;5073480;28;20220;-69
2022/03/02 01:38:51;;;;;;;11.20;1.90;;;19.70;99.90;;;;;;5075226;28;20516;-69
2022/03/02 01:41:22;;;;;;;7.57;1.97;;;19.70;99.90;;;;;;5075292;28;20203;-67
2022/03/02 01:43:51;;;;;;;6.63;1.80;;;19.70;99.90;;;;;;5075213;28;20188;-67
2022/03/02 01:46:19;;;;;;;8.03;2.10;;;19.80;99.90;;;;;;5073709;28;20501;-67
2022/03/02 01:48:48;;;;;;;11.73;1.90;;;19.70;99.90;;;;;;5073640;28;20206;-68
2022/03/02 01:51:15;;;;;;;8.50;1.80;;;19.70;99.90;;;;;;5075212;28;20266;-68
2022/03/02 01:53:43;;;;;;;14.70;2.33;;;19.80;99.90;;;;;;5075067;28;20195;-68
2022/03/02 01:56:11;;;;;;;12.40;1.77;;;19.90;99.90;;;;;;5075383;28;20247;-69
2022/03/02 01:58:39;;;;;;;13.10;2.60;;;19.80;99.90;;;;;;5075084;28;20576;-68
2022/03/02 02:01:07;;;;;;;11.00;2.03;;;19.90;99.90;;;;;;5074922;28;20172;-68
2022/03/02 02:03:35;;;;;;;9.17;2.20;;;19.90;99.90;;;;;;5064376;28;20636;-69
2022/03/02 02:06:03;;;;;;;14.90;2.20;;;20.00;99.90;;;;;;5074253;28;20191;-70
2022/03/02 02:08:31;;;;;;;9.33;2.50;;;20.00;99.90;;;;;;5056188;28;20188;-69
2022/03/02 02:10:59;;;;;;;11.63;2.53;;;20.00;99.90;;;;;;5072240;28;20555;-69
2022/03/02 02:13:30;;;;;;;12.10;2.47;;;20.00;99.90;;;;;;5074934;28;20168;-69
2022/03/02 02:15:57;;;;;;;15.50;2.80;;;20.00;99.90;;;;;;5073086;28;20233;-69
2022/03/02 02:18:25;;;;;;;12.00;2.57;;;20.00;99.90;;;;;;5074675;28;20275;-69
2022/03/02 02:20:52;;;;;;;9.63;2.83;;;20.10;99.90;;;;;;5074078;28;20191;-69
2022/03/02 02:23:20;;;;;;;14.00;2.10;;;20.10;99.90;;;;;;5074544;28;20706;-68
2022/03/02 02:25:47;;;;;;;10.17;2.70;;;20.10;99.90;;;;;;5074349;28;20215;-68
2022/03/02 02:28:21;;;;;;;14.83;2.70;;;20.10;99.90;;;;;;5074606;28;20230;-68
2022/03/02 02:30:50;;;;;;;11.57;2.07;;;20.10;99.90;;;;;;5073312;28;20660;-68
2022/03/02 02:33:18;;;;;;;14.20;2.33;;;20.10;99.90;;;;;;5054457;28;20200;-68
2022/03/02 02:35:45;;;;;;;14.47;2.47;;;20.10;99.90;;;;;;5066144;28;20277;-69
2022/03/02 02:38:13;;;;;;;11.00;2.57;;;20.20;99.90;;;;;;5073785;28;20273;-67
2022/03/02 02:40:41;;;;;;;11.57;2.20;;;20.10;99.90;;;;;;5054319;28;20211;-68
2022/03/02 02:43:09;;;;;;;10.40;1.90;;;20.20;99.90;;;;;;5052884;28;20188;-69
2022/03/02 02:45:36;;;;;;;10.03;2.43;;;20.20;99.90;;;;;;5055848;28;20222;-68
2022/03/02 02:48:04;;;;;;;11.20;2.47;;;20.20;99.90;;;;;;5071596;28;20609;-70
2022/03/02 02:50:33;;;;;;;9.00;2.20;;;20.10;99.90;;;;;;5072327;28;20187;-69
2022/03/02 02:53:07;;;;;;;9.13;1.70;;;20.10;99.90;;;;;;5054028;28;20288;-70
2022/03/02 02:55:36;;;;;;;10.50;1.80;;;20.10;99.90;;;;;;5065561;28;20268;-68
2022/03/02 02:58:05;;;;;;;9.27;2.40;;;20.10;99.90;;;;;;5073771;28;20211;-70
2022/03/02 03:00:36;;;;;;;9.07;2.23;;;20.10;99.90;;;;;;5073675;28;20546;-69
2022/03/02 03:03:04;;;;;;;8.87;2.10;;;20.10;99.90;;;;;;5061269;28;20180;-69
2022/03/02 03:05:34;;;;;;;6.17;1.93;;;20.20;99.90;;;;;;5053995;28;20215;-70
2022/03/02 03:08:04;;;;;;;8.13;1.87;;;20.20;99.90;;;;;;5053595;28;20323;-69
2022/03/02 03:10:32;;;;;;;5.17;1.80;;;20.20;99.90;;;;;;5065830;28;20679;-69
2022/03/02 03:13:00;;;;;;;10.67;1.90;;;20.20;99.90;;;;;;5066349;28;20575;-68
2022/03/02 03:15:28;;;;;;;9.63;2.43;;;20.20;99.90;;;;;;5073216;28;20229;-68
2022/03/02 03:17:55;;;;;;;10.93;2.23;;;20.30;99.90;;;;;;5073544;28;20180;-67
2022/03/02 03:20:25;;;;;;;10.27;1.80;;;20.20;99.90;;;;;;5073229;28;20185;-68
2022/03/02 03:22:54;;;;;;;10.30;1.83;;;20.10;99.90;;;;;;5073404;28;20187;-67
2022/03/02 03:25:22;;;;;;;10.07;2.10;;;20.00;99.90;;;;;;5073420;28;20180;-68
2022/03/02 03:27:50;;;;;;;14.67;2.43;;;20.00;99.90;;;;;;5073256;28;20176;-69
2022/03/02 03:30:20;;;;;;;9.53;1.70;;;20.00;99.90;;;;;;5072936;28;20237;-68
2022/03/02 03:32:48;;;;;;;10.47;2.63;;;20.00;99.90;;;;;;5063026;28;20191;-68
2022/03/02 03:35:17;;;;;;;13.33;2.17;;;20.00;99.90;;;;;;5053226;28;20219;-67
2022/03/02 03:37:46;;;;;;;12.57;2.77;;;20.10;99.90;;;;;;5060789;28;20640;-68
2022/03/02 03:40:15;;;;;;;9.03;1.93;;;19.90;99.90;;;;;;5072904;28;20245;-68
2022/03/02 03:42:43;;;;;;;10.50;1.77;;;19.90;99.90;;;;;;5072772;28;20305;-67
2022/03/02 03:45:11;;;;;;;8.47;1.97;;;20.00;99.90;;;;;;5072701;28;20195;-70
2022/03/02 03:47:39;;;;;;;11.90;1.60;;;19.90;99.90;;;;;;5067725;28;20208;-68
2022/03/02 03:50:07;;;;;;;10.13;2.17;;;19.90;99.90;;;;;;5068716;28;20184;-67
2022/03/02 03:52:35;;;;;;;19.17;2.50;;;19.90;99.90;;;;;;5068860;28;20579;-67
2022/03/02 03:55:03;;;;;;;16.07;2.17;;;20.00;99.90;;;;;;5052683;28;20303;-69
2022/03/02 03:57:31;;;;;;;11.57;1.97;;;19.90;99.90;;;;;;5052777;28;20659;-68
2022/03/02 03:59:58;;;;;;;16.67;2.13;;;20.00;99.90;;;;;;5062753;28;20200;-67
2022/03/02 04:02:26;;;;;;;12.10;2.40;;;20.10;99.90;;;;;;5072135;28;20277;-67
2022/03/02 04:04:53;;;;;;;10.60;2.20;;;20.10;99.90;;;;;;5072117;28;20229;-66
2022/03/02 04:07:20;;;;;;;18.10;2.60;;;20.10;99.90;;;;;;5071203;28;20180;-67
2022/03/02 04:09:48;;;;;;;12.70;2.57;;;20.20;99.90;;;;;;5072288;28;20256;-67
2022/03/02 04:12:17;;;;;;;12.93;2.67;;;20.10;99.90;;;;;;5072246;28;20223;-66
2022/03/02 04:14:45;;;;;;;14.27;2.37;;;20.20;99.90;;;;;;5070968;28;20211;-67
2022/03/02 04:17:12;;;;;;;16.70;3.27;;;20.20;99.90;;;;;;5072309;28;20645;-68
2022/03/02 04:19:39;;;;;;;22.13;3.67;;;20.20;99.90;;;;;;5070907;28;20180;-67
2022/03/02 04:22:07;;;;;;;20.17;2.80;;;20.20;99.90;;;;;;5071809;28;20677;-70
2022/03/02 04:24:34;;;;;;;13.93;2.60;;;20.20;99.90;;;;;;5072153;28;20630;-69
2022/03/02 04:27:01;;;;;;;26.23;3.43;;;20.20;99.90;;;;;;5072111;28;20173;-68
2022/03/02 04:29:29;;;;;;;26.03;3.20;;;20.30;99.90;;;;;;5071979;28;20192;-69
2022/03/02 04:31:56;;;;;;;14.37;3.07;;;20.30;99.90;;;;;;5071878;28;20171;-68
2022/03/02 04:34:25;;;;;;;16.37;3.20;;;20.30;99.90;;;;;;5072022;28;20200;-69
2022/03/02 04:36:53;;;;;;;17.23;2.90;;;20.40;99.90;;;;;;5071716;28;20206;-68
2022/03/02 04:39:20;;;;;;;13.40;2.60;;;20.40;99.90;;;;;;5072093;28;20262;-69
2022/03/02 04:41:48;;;;;;;16.00;3.13;;;20.40;99.90;;;;;;5070816;28;20183;-68
2022/03/02 04:44:15;;;;;;;26.93;3.13;;;20.50;99.90;;;;;;5071908;28;20187;-69
2022/03/02 04:46:48;;;;;;;20.30;3.50;;;20.50;99.90;;;;;;5071819;28;20178;-68
2022/03/02 04:49:18;;;;;;;22.27;3.20;;;20.50;99.90;;;;;;5071930;28;20180;-69
2022/03/02 04:51:47;;;;;;;16.93;3.07;;;20.50;99.90;;;;;;5071851;28;20243;-70
2022/03/02 04:57:02;;;;;;;22.27;3.33;;;20.50;99.90;;;;;;5072204;28;20195;-69
2022/03/02 04:59:30;;;;;;;20.63;3.47;;;20.60;99.90;;;;;;5071901;28;20184;-69
2022/03/02 05:01:58;;;;;;;20.17;3.83;;;20.60;99.90;;;;;;5071608;28;20258;-68
2022/03/02 05:04:26;;;;;;;23.60;4.17;;;20.50;99.90;;;;;;5071567;28;20633;-69
2022/03/02 05:06:54;;;;;;;23.37;3.70;;;20.60;99.90;;;;;;5071631;28;20183;-70
2022/03/02 05:09:21;;;;;;;26.23;3.97;;;20.60;99.90;;;;;;5071515;28;20234;-69
2022/03/02 05:11:48;;;;;;;20.80;3.93;;;20.70;99.90;;;;;;5074467;28;20278;-68
2022/03/02 05:14:16;;;;;;;21.30;4.20;;;20.60;99.90;;;;;;5075755;28;20657;-68
2022/03/02 05:16:43;;;;;;;20.80;3.60;;;20.70;99.90;;;;;;5075653;28;20191;-68
2022/03/02 05:19:11;;;;;;;25.13;3.83;;;20.70;99.90;;;;;;5075785;28;20176;-69
2022/03/02 05:21:38;;;;;;;25.50;4.47;;;20.80;99.90;;;;;;5075397;28;20195;-69
2022/03/02 05:24:06;;;;;;;20.93;4.00;;;20.70;99.90;;;;;;5075797;28;20226;-69
2022/03/02 05:26:33;;;;;;;23.50;4.00;;;20.70;99.90;;;;;;5075237;28;20191;-69
2022/03/02 05:29:01;;;;;;;23.13;3.63;;;20.70;99.90;;;;;;5075396;28;20180;-69
2022/03/02 05:31:29;;;;;;;18.70;3.70;;;20.70;99.90;;;;;;5075276;28;20316;-69
2022/03/02 05:33:56;;;;;;;28.17;4.67;;;20.60;99.90;;;;;;5075564;28;20179;-69
2022/03/02 05:36:24;;;;;;;20.87;3.73;;;20.70;99.90;;;;;;5072072;28;20227;-70
2022/03/02 05:38:52;;;;;;;16.47;4.07;;;20.50;99.90;;;;;;5073901;28;20187;-68
2022/03/02 05:41:20;;;;;;;24.23;3.60;;;20.50;99.90;;;;;;5074707;28;20222;-69
2022/03/02 05:43:48;;;;;;;14.77;3.23;;;20.60;99.90;;;;;;5074513;28;20520;-69
2022/03/02 05:46:16;;;;;;;20.57;3.27;;;20.50;99.90;;;;;;5054027;28;20177;-69
2022/03/02 05:48:43;;;;;;;21.53;5.07;;;20.40;99.90;;;;;;5055148;28;20176;-69
2022/03/02 05:51:11;;;;;;;22.10;5.00;;;20.50;99.90;;;;;;5059300;28;20190;-68
2022/03/02 05:53:38;;;;;;;24.93;8.23;;;20.60;99.90;;;;;;5074393;28;20184;-68
2022/03/02 05:56:06;;;;;;;55.03;39.47;;;20.50;99.90;;;;;;5074281;28;20211;-68
2022/03/02 05:58:33;;;;;;;83.03;53.20;;;20.60;99.90;;;;;;5075085;28;20353;-68
2022/03/02 06:01:01;;;;;;;101.57;75.23;;;20.60;99.90;;;;;;5075855;28;20179;-68
2022/03/02 06:03:29;;;;;;;31.47;16.43;;;20.60;99.90;;;;;;5074421;28;20267;-68
2022/03/02 06:05:56;;;;;;;16.93;3.33;;;20.60;99.90;;;;;;5074018;28;20705;-68
2022/03/02 06:08:24;;;;;;;23.27;3.80;;;20.50;99.90;;;;;;5074542;28;20175;-67
2022/03/02 06:10:52;;;;;;;18.17;5.93;;;20.40;99.90;;;;;;5074012;28;20716;-68
2022/03/02 06:13:19;;;;;;;16.37;2.87;;;20.40;99.90;;;;;;5074679;28;20179;-67
2022/03/02 06:15:47;;;;;;;20.63;5.53;;;20.30;99.90;;;;;;5074317;28;20211;-66
2022/03/02 06:18:14;;;;;;;20.33;6.07;;;20.40;99.90;;;;;;5074920;28;20681;-68
2022/03/02 06:20:43;;;;;;;27.73;10.97;;;20.40;99.90;;;;;;5074716;28;20188;-68
2022/03/02 06:23:11;;;;;;;18.70;5.43;;;20.40;99.90;;;;;;5074469;28;20267;-69
2022/03/02 06:25:39;;;;;;;14.03;3.50;;;20.30;99.90;;;;;;5074683;28;20180;-69
2022/03/02 06:28:06;;;;;;;17.53;3.23;;;20.30;99.90;;;;;;5072978;28;20271;-69
2022/03/02 06:30:33;;;;;;;26.20;12.00;;;20.30;99.90;;;;;;5074197;28;20183;-68
2022/03/02 06:33:01;;;;;;;16.63;4.30;;;20.30;99.90;;;;;;5074199;28;20180;-70
2022/03/02 06:35:28;;;;;;;13.50;2.37;;;20.20;99.90;;;;;;5074155;28;20544;-70
2022/03/02 06:37:56;;;;;;;18.77;2.93;;;20.20;99.90;;;;;;5055501;28;20677;-69
2022/03/02 06:40:23;;;;;;;14.40;3.10;;;20.20;99.90;;;;;;5054267;28;20257;-70
2022/03/02 06:43:09;;;;;;;19.90;3.13;;;20.20;99.90;;;;;;5057790;28;20179;-70
2022/03/02 06:45:48;;;;;;;10.60;2.83;;;20.20;99.90;;;;;;5054342;28;20179;-70
2022/03/02 06:48:26;;;;;;;16.77;3.07;;;20.20;99.90;;;;;;5070845;28;20180;-70
2022/03/02 06:50:55;;;;;;;14.27;2.97;;;20.20;99.90;;;;;;5072558;28;20262;-68
2022/03/02 06:53:35;;;;;;;13.57;2.50;;;20.30;99.90;;;;;;5072919;28;20198;-72
2022/03/02 06:56:08;;;;;;;18.20;3.40;;;20.20;99.90;;;;;;5074113;28;20219;-71
2022/03/02 06:58:50;;;;;;;13.20;2.80;;;20.20;99.90;;;;;;5069685;28;20192;-70
2022/03/02 07:01:29;;;;;;;13.70;2.67;;;20.20;99.90;;;;;;5067285;28;20272;-68
2022/03/02 07:03:58;;;;;;;19.27;3.07;;;20.20;99.90;;;;;;5072991;28;20273;-70
2022/03/02 07:06:27;;;;;;;16.33;2.60;;;20.20;99.90;;;;;;5072807;28;20187;-71
2022/03/02 07:08:55;;;;;;;11.17;2.53;;;20.20;99.90;;;;;;5073556;28;20191;-71
2022/03/02 07:11:25;;;;;;;20.67;4.00;;;20.20;99.90;;;;;;5056248;28;20219;-69
2022/03/02 07:13:52;;;;;;;16.53;3.00;;;20.20;99.90;;;;;;5073234;28;20567;-68
2022/03/02 07:16:21;;;;;;;16.13;2.90;;;20.30;99.90;;;;;;5073452;28;20227;-68
2022/03/02 07:18:52;;;;;;;11.63;3.00;;;20.30;99.90;;;;;;5072881;28;20184;-67
2022/03/02 07:21:25;;;;;;;8.73;2.20;;;20.20;99.90;;;;;;5073326;28;20275;-67
2022/03/02 07:24:06;;;;;;;11.97;2.53;;;20.20;99.90;;;;;;5072643;28;20190;-68
2022/03/02 07:26:35;;;;;;;12.13;3.40;;;20.20;99.90;;;;;;5073379;28;20178;-67
2022/03/02 07:29:05;;;;;;;13.70;3.40;;;20.30;99.90;;;;;;5073075;28;20200;-70
2022/03/02 07:31:33;;;;;;;6.97;1.97;;;20.30;99.90;;;;;;5072905;28;20192;-71
2022/03/02 07:34:02;;;;;;;122.50;87.73;;;20.20;99.90;;;;;;5063726;28;20189;-67
2022/03/02 07:36:31;;;;;;;30.00;15.67;;;20.20;99.90;;;;;;5053085;28;20299;-67
2022/03/02 07:38:59;;;;;;;15.00;3.47;;;20.10;99.90;;;;;;5062921;28;20547;-69
2022/03/02 07:41:27;;;;;;;13.30;2.27;;;20.10;99.90;;;;;;5073137;28;20581;-68
2022/03/02 07:43:54;;;;;;;11.90;2.27;;;19.90;99.90;;;;;;5072817;28;20191;-69
2022/03/02 07:46:22;;;;;;;14.10;2.83;;;20.00;99.90;;;;;;5072647;28;20551;-70
2022/03/02 07:48:50;;;;;;;16.10;2.80;;;19.90;99.90;;;;;;5073987;28;20266;-70
2022/03/02 07:51:18;;;;;;;16.57;3.00;;;20.00;99.90;;;;;;5075107;28;20187;-71
2022/03/02 07:53:49;;;;;;;12.60;2.87;;;20.00;99.90;;;;;;5073344;28;20196;-68
2022/03/02 07:56:19;;;;;;;13.50;2.77;;;20.00;99.90;;;;;;5072301;28;20222;-71
2022/03/02 07:58:47;;;;;;;17.80;3.83;;;20.00;99.90;;;;;;5072600;28;20259;-70
2022/03/02 08:01:17;;;;;;;14.60;3.03;;;20.00;99.90;;;;;;5072321;28;20172;-71
2022/03/02 08:03:45;;;;;;;31.20;8.67;;;20.00;99.90;;;;;;5072417;28;20182;-69
2022/03/02 08:06:14;;;;;;;13.33;2.70;;;20.10;99.90;;;;;;5071304;28;20192;-70
2022/03/02 08:08:41;;;;;;;15.00;2.63;;;20.10;99.90;;;;;;5073075;28;20183;-71
2022/03/02 08:11:08;;;;;;;12.17;2.30;;;20.10;99.90;;;;;;5072843;28;20250;-70
2022/03/02 08:13:37;;;;;;;10.17;2.50;;;20.10;99.90;;;;;;5072756;28;20186;-70
2022/03/02 08:16:05;;;;;;;13.00;2.70;;;20.10;99.90;;;;;;5069821;28;20646;-68
2022/03/02 08:18:32;;;;;;;12.57;3.00;;;20.20;99.90;;;;;;5072365;28;20176;-69
2022/03/02 08:21:01;;;;;;;11.93;5.60;;;20.20;99.90;;;;;;5072484;28;20179;-68
2022/03/02 08:23:50;;;;;;;12.80;4.07;;;20.20;99.90;;;;;;5072372;28;20234;-70
2022/03/02 08:26:22;;;;;;;9.97;3.37;;;20.10;99.90;;;;;;5053206;28;20177;-69
2022/03/02 08:29:00;;;;;;;17.20;2.97;;;20.20;99.90;;;;;;5063802;28;20190;-72
2022/03/02 08:31:28;;;;;;;15.17;3.10;;;20.10;99.90;;;;;;5072293;28;20680;-72
2022/03/02 08:33:57;;;;;;;14.20;3.13;;;20.20;99.90;;;;;;5074284;28;20652;-72
2022/03/02 08:36:26;;;;;;;18.27;4.43;;;20.10;99.90;;;;;;5073241;28;20220;-71
2022/03/02 08:38:54;;;;;;;19.47;3.37;;;20.10;99.90;;;;;;5070964;28;20182;-71
2022/03/02 08:41:21;;;;;;;12.77;2.93;;;20.10;99.90;;;;;;5071623;28;20226;-71
2022/03/02 08:43:49;;;;;;;12.87;3.23;;;20.10;99.90;;;;;;5070939;28;20838;-70
2022/03/02 08:46:17;;;;;;;10.17;2.50;;;20.20;99.90;;;;;;5070951;28;20682;-72
2022/03/02 08:48:44;;;;;;;8.30;2.70;;;20.20;99.90;;;;;;5072193;28;20171;-71
2022/03/02 08:51:12;;;;;;;8.87;2.77;;;20.20;99.90;;;;;;5072468;28;20182;-71
2022/03/02 08:53:41;;;;;;;10.23;2.43;;;20.10;99.90;;;;;;5072811;28;20187;-71
2022/03/02 08:56:09;;;;;;;9.73;2.47;;;20.10;99.90;;;;;;5074245;28;20241;-71
2022/03/02 08:58:42;;;;;;;13.07;4.23;;;20.00;99.90;;;;;;5074944;28;20274;-71
2022/03/02 09:01:13;;;;;;;10.67;3.37;;;20.00;99.90;;;;;;5072077;28;20670;-70
2022/03/02 09:03:48;;;;;;;7.70;2.90;;;19.90;99.90;;;;;;5071709;28;20198;-69
2022/03/02 09:06:24;;;;;;;10.30;2.67;;;19.90;99.90;;;;;;5072213;28;20191;-70
2022/03/02 09:08:51;;;;;;;11.80;1.70;;;19.90;99.90;;;;;;5052075;28;20329;-70
2022/03/02 09:11:19;;;;;;;9.57;1.80;;;19.90;99.90;;;;;;5085200;28;20247;-71
2022/03/02 09:13:46;;;;;;;6.13;1.50;;;19.90;99.90;;;;;;5070712;28;20190;-72
2022/03/02 09:16:14;;;;;;;7.83;1.77;;;19.80;99.90;;;;;;5060603;28;20224;-71
2022/03/02 09:18:41;;;;;;;102.10;91.10;;;19.90;99.90;;;;;;5052616;28;20200;-71
2022/03/02 09:21:09;;;;;;;428.20;360.93;;;19.80;99.90;;;;;;5051808;28;20191;-69
2022/03/02 09:23:43;;;;;;;227.30;172.60;;;19.90;99.90;;;;;;5062917;28;20194;-70
2022/03/02 09:26:16;;;;;;;1096.30;732.03;;;19.90;99.90;;;;;;5052975;28;20668;-71
2022/03/02 09:28:48;;;;;;;420.87;303.13;;;19.90;99.90;;;;;;5051508;28;20167;-70
2022/03/02 09:31:19;;;;;;;39.30;23.67;;;19.90;99.90;;;;;;5051491;28;20188;-71
2022/03/02 09:33:55;;;;;;;701.03;566.00;;;19.80;99.90;;;;;;5070697;28;20687;-71
2022/03/02 09:36:26;;;;;;;250.20;191.83;;;19.90;99.90;;;;;;5074717;28;20328;-71
2022/03/02 09:38:54;;;;;;;33.20;16.67;;;19.90;99.90;;;;;;5071728;28;20279;-72
2022/03/02 09:41:40;;;;;;;424.67;283.23;;;19.80;99.90;;;;;;5070692;28;20225;-70
2022/03/02 09:44:13;;;;;;;302.03;196.87;;;19.90;99.90;;;;;;5071585;28;20201;-70
2022/03/02 09:46:41;;;;;;;216.07;137.83;;;19.90;99.90;;;;;;5070782;28;20260;-71
2022/03/02 09:49:12;;;;;;;428.37;281.00;;;19.90;99.90;;;;;;5071202;28;20196;-70
2022/03/02 09:51:42;;;;;;;165.57;98.47;;;19.90;99.90;;;;;;5071653;28;20183;-70
2022/03/02 09:54:10;;;;;;;185.23;112.90;;;19.90;99.90;;;;;;5071696;28;20221;-71
2022/03/02 09:56:38;;;;;;;307.80;195.73;;;19.90;99.90;;;;;;5074521;28;20215;-71
2022/03/02 09:59:08;;;;;;;45.33;26.30;;;19.90;99.90;;;;;;5075161;28;20270;-73
2022/03/02 10:01:38;;;;;;;100.37;50.93;;;20.00;99.90;;;;;;5075003;28;20187;-70
2022/03/02 10:04:22;;;;;;;37.67;17.43;;;19.90;99.90;;;;;;5066373;28;20179;-70
2022/03/02 10:07:26;;;;;;;44.20;19.23;;;19.90;99.90;;;;;;5062245;28;20204;-70
2022/03/02 10:09:50;;;;;;;21.63;5.27;;;19.90;99.90;;;;;;5066173;28;20199;-74
2022/03/02 10:12:20;;;;;;;69.13;35.43;;;19.90;99.90;;;;;;5075709;28;20667;-72
2022/03/02 10:14:50;;;;;;;30.23;10.20;;;19.90;99.90;;;;;;5076468;28;20220;-71
2022/03/02 10:17:21;;;;;;;25.87;4.13;;;19.90;99.90;;;;;;5067596;28;20196;-69
2022/03/02 10:19:55;;;;;;;23.50;5.00;;;20.00;99.90;;;;;;5087619;28;20224;-73
2022/03/02 10:22:41;;;;;;;15.40;3.70;;;20.00;99.90;;;;;;5063185;28;20552;-69
2022/03/02 10:25:11;;;;;;;19.93;3.27;;;20.00;99.90;;;;;;5074466;28;20240;-69
2022/03/02 10:27:44;;;;;;;18.80;3.70;;;20.00;99.90;;;;;;5070571;28;20216;-70
2022/03/02 10:30:12;;;;;;;13.97;3.20;;;20.00;99.90;;;;;;5054851;28;20183;-71
2022/03/02 10:32:43;;;;;;;24.03;4.10;;;20.00;99.90;;;;;;5055016;28;20180;-70
2022/03/02 10:35:13;;;;;;;12.80;2.87;;;20.00;99.90;;;;;;5057597;28;20247;-71
2022/03/02 10:37:53;;;;;;;21.17;2.90;;;20.00;99.90;;;;;;5054444;28;20187;-71
2022/03/02 10:40:25;;;;;;;17.47;3.53;;;20.00;99.90;;;;;;5058213;28;20726;-70
2022/03/02 10:43:03;;;;;;;17.97;2.90;;;20.00;99.90;;;;;;5061782;28;20282;-71
2022/03/02 10:45:51;;;;;;;12.90;3.10;;;20.00;99.90;;;;;;5055137;28;20296;-71
2022/03/02 10:48:42;;;;;;;24.10;3.73;;;20.00;99.90;;;;;;5068428;28;20185;-67
2022/03/02 10:51:11;;;;;;;18.23;3.40;;;20.00;99.90;;;;;;5058873;28;20203;-68
2022/03/02 10:53:40;;;;;;;18.40;3.80;;;20.00;99.90;;;;;;5073111;28;20189;-68
2022/03/02 10:56:20;;;;;;;18.93;3.43;;;20.10;99.90;;;;;;5073936;28;20226;-75
2022/03/02 10:58:51;;;;;;;23.00;4.03;;;20.10;99.90;;;;;;5074529;28;20644;-70
2022/03/02 11:01:19;;;;;;;28.40;3.77;;;20.10;99.90;;;;;;5074507;28;20179;-69
2022/03/02 11:03:47;;;;;;;22.37;3.87;;;20.10;99.90;;;;;;5073747;28;20560;-72
2022/03/02 11:06:16;;;;;;;16.63;3.97;;;20.10;99.90;;;;;;5074147;28;20218;-71
2022/03/02 11:08:43;;;;;;;28.60;4.80;;;20.10;99.90;;;;;;5072820;28;20194;-71
2022/03/02 11:11:11;;;;;;;21.33;3.70;;;20.10;99.90;;;;;;5074490;28;20302;-72
2022/03/02 11:13:39;;;;;;;32.23;4.30;;;20.10;99.90;;;;;;5074733;28;20186;-71
2022/03/02 11:16:07;;;;;;;33.70;4.87;;;20.10;99.90;;;;;;5074900;28;20218;-72
2022/03/02 11:18:48;;;;;;;32.50;4.57;;;20.10;99.90;;;;;;5075543;28;20251;-70
2022/03/02 11:21:20;;;;;;;25.13;3.90;;;20.10;99.90;;;;;;5074819;28;20237;-70
2022/03/02 11:23:53;;;;;;;30.00;4.50;;;20.10;99.90;;;;;;5073270;28;20188;-68
2022/03/02 11:26:27;;;;;;;32.77;5.27;;;20.10;99.90;;;;;;5074669;28;20175;-69
2022/03/02 11:28:58;;;;;;;29.23;4.70;;;20.10;99.90;;;;;;5073640;28;20775;-70
2022/03/02 11:31:30;;;;;;;22.67;4.77;;;20.10;99.90;;;;;;5074856;28;20577;-68
2022/03/02 11:34:21;;;;;;;31.80;5.97;;;20.10;99.90;;;;;;5074404;28;20207;-69
2022/03/02 11:36:58;;;;;;;19.50;4.93;;;20.10;99.90;;;;;;5074525;28;20194;-70
2022/03/02 11:39:29;;;;;;;23.93;5.43;;;20.20;99.90;;;;;;5073264;28;20239;-72
2022/03/02 11:42:00;;;;;;;29.87;4.60;;;20.20;99.90;;;;;;5074360;28;20266;-71
2022/03/02 11:44:32;;;;;;;31.67;5.37;;;20.20;99.90;;;;;;5074371;28;20172;-69
2022/03/02 11:47:10;;;;;;;35.23;5.50;;;20.20;99.90;;;;;;5074226;28;20214;-71
2022/03/02 11:49:43;;;;;;;31.77;5.37;;;20.20;99.90;;;;;;5073106;28;20267;-69
2022/03/02 11:52:14;;;;;;;36.83;5.60;;;20.20;99.90;;;;;;5072961;28;20207;-69
2022/03/02 11:54:46;;;;;;;28.90;5.90;;;20.20;99.90;;;;;;5074108;28;20228;-71
2022/03/02 11:57:16;;;;;;;28.93;5.37;;;20.20;99.90;;;;;;5074455;28;20545;-71
2022/03/02 11:59:46;;;;;;;26.10;5.40;;;20.20;99.90;;;;;;5072336;28;20242;-70
2022/03/02 12:02:15;;;;;;;29.37;4.93;;;20.20;99.90;;;;;;5074107;28;20282;-69
2022/03/02 12:05:04;;;;;;;23.60;4.50;;;20.20;99.90;;;;;;5074592;28;20172;-71
2022/03/02 12:07:43;;;;;;;37.37;5.67;;;20.20;99.90;;;;;;5073387;28;20217;-71
2022/03/02 12:10:26;;;;;;;31.80;5.00;;;20.20;99.90;;;;;;5073898;28;20187;-71
2022/03/02 12:12:55;;;;;;;36.20;6.10;;;20.20;99.90;;;;;;5073880;28;20192;-71
2022/03/02 12:15:25;;;;;;;36.77;5.27;;;20.20;99.90;;;;;;5072030;28;20563;-72
2022/03/02 12:18:06;;;;;;;32.60;5.67;;;20.30;99.90;;;;;;5073780;28;20637;-72
2022/03/02 12:20:34;;;;;;;41.40;6.47;;;20.30;99.90;;;;;;5073585;28;20183;-71
2022/03/02 12:23:04;;;;;;;39.10;6.87;;;20.30;99.90;;;;;;5073580;28;20183;-69
2022/03/02 12:25:32;;;;;;;35.47;5.53;;;20.30;99.90;;;;;;5073719;28;20653;-69
2022/03/02 12:28:02;;;;;;;34.27;5.77;;;20.30;99.90;;;;;;5073590;28;20539;-71
2022/03/02 12:30:35;;;;;;;36.10;5.30;;;20.30;99.90;;;;;;5072099;28;20171;-69
2022/03/02 12:33:05;;;;;;;34.23;5.63;;;20.30;99.90;;;;;;5074023;28;20705;-72
2022/03/02 12:35:33;;;;;;;33.73;6.03;;;20.30;99.90;;;;;;5072226;28;20215;-69
2022/03/02 12:38:03;;;;;;;26.77;4.97;;;20.30;99.90;;;;;;5073544;28;20177;-70
2022/03/02 12:40:36;;;;;;;35.87;6.13;;;20.30;99.90;;;;;;5073118;28;20176;-71
2022/03/02 12:43:04;;;;;;;46.13;6.70;;;20.40;99.90;;;;;;5073179;28;20188;-70
2022/03/02 12:45:35;;;;;;;47.00;7.57;;;20.30;99.90;;;;;;5073243;28;20257;-70
2022/03/02 12:48:02;;;;;;;40.20;6.70;;;20.40;99.90;;;;;;5073079;28;20751;-68
2022/03/02 12:50:32;;;;;;;46.20;6.33;;;20.40;99.90;;;;;;5071224;28;20272;-70